sensor_id;sensor_type;location;lat;lon;timestamp;P1;durP1;ratioP1;P2;durP2;ratioP2
16270;SDS011;8243;49.048;8.396;2023-05-17T00:01:48;4.50;;;2.20;;
16270;SDS011;8243;49.048;8.396;2023-05-17T00:04:13;7.00;;;2.30;;
16270;SDS011;8243;49.048;8.396;2023-05-17T00:06:40;4.53;;;1.80;;
16270;SDS011;8243;49.048;8.396;2023-05-17T00:09:06;5.97;;;1.87;;
16270;SDS011;8243;49.048;8.396;2023-05-17T00:11:31;7.63;;;1.97;;
16270;SDS011;8243;49.048;8.396;2023-05-17T00:13:57;4.87;;;1.63;;
16270;SDS011;8243;49.048;8.396;2023-05-17T00:16:22;3.93;;;1.70;;
16270;SDS011;8243;49.048;8.396;2023-05-17T00:18:48;3.80;;;1.90;;
16270;SDS011;8243;49.048;8.396;2023-05-17T00:21:13;3.43;;;1.83;;
16270;SDS011;8243;49.048;8.396;2023-05-17T00:23:39;4.30;;;1.73;;
16270;SDS011;8243;49.048;8.396;2023-05-17T00:26:04;6.07;;;2.03;;
16270;SDS011;8243;49.048;8.396;2023-05-17T00:28:30;3.73;;;1.80;;
16270;SDS011;8243;49.048;8.396;2023-05-17T00:30:55;4.57;;;1.90;;
16270;SDS011;8243;49.048;8.396;2023-05-17T00:33:21;4.30;;;1.97;;
16270;SDS011;8243;49.048;8.396;2023-05-17T00:35:47;4.20;;;1.73;;
16270;SDS011;8243;49.048;8.396;2023-05-17T00:38:12;5.90;;;2.40;;
16270;SDS011;8243;49.048;8.396;2023-05-17T00:40:38;6.10;;;2.00;;
16270;SDS011;8243;49.048;8.396;2023-05-17T00:43:03;3.80;;;1.83;;
16270;SDS011;8243;49.048;8.396;2023-05-17T00:45:29;4.07;;;1.60;;
16270;SDS011;8243;49.048;8.396;2023-05-17T00:47:54;3.50;;;2.00;;
16270;SDS011;8243;49.048;8.396;2023-05-17T00:50:20;7.63;;;2.10;;
16270;SDS011;8243;49.048;8.396;2023-05-17T00:52:45;4.70;;;2.20;;
16270;SDS011;8243;49.048;8.396;2023-05-17T00:55:11;3.83;;;2.10;;
16270;SDS011;8243;49.048;8.396;2023-05-17T00:57:37;4.73;;;2.40;;
16270;SDS011;8243;49.048;8.396;2023-05-17T01:00:03;8.33;;;2.60;;
16270;SDS011;8243;49.048;8.396;2023-05-17T01:02:29;4.67;;;2.13;;
16270;SDS011;8243;49.048;8.396;2023-05-17T01:04:54;9.00;;;3.00;;
16270;SDS011;8243;49.048;8.396;2023-05-17T01:07:21;4.50;;;2.17;;
16270;SDS011;8243;49.048;8.396;2023-05-17T01:09:46;8.60;;;2.80;;
16270;SDS011;8243;49.048;8.396;2023-05-17T01:12:14;5.80;;;2.53;;
16270;SDS011;8243;49.048;8.396;2023-05-17T01:17:53;5.77;;;3.37;;
16270;SDS011;8243;49.048;8.396;2023-05-17T01:22:51;3.70;;;2.57;;
16270;SDS011;8243;49.048;8.396;2023-05-17T01:28:15;8.50;;;3.33;;
16270;SDS011;8243;49.048;8.396;2023-05-17T01:30:43;8.60;;;3.00;;
16270;SDS011;8243;49.048;8.396;2023-05-17T01:33:11;5.80;;;2.70;;
16270;SDS011;8243;49.048;8.396;2023-05-17T01:35:37;6.17;;;2.47;;
16270;SDS011;8243;49.048;8.396;2023-05-17T01:38:03;4.97;;;2.60;;
16270;SDS011;8243;49.048;8.396;2023-05-17T01:40:29;7.63;;;2.73;;
16270;SDS011;8243;49.048;8.396;2023-05-17T01:43:04;7.00;;;2.47;;
16270;SDS011;8243;49.048;8.396;2023-05-17T01:45:39;4.40;;;2.40;;
16270;SDS011;8243;49.048;8.396;2023-05-17T01:48:25;6.53;;;2.40;;
16270;SDS011;8243;49.048;8.396;2023-05-17T01:50:56;5.97;;;2.80;;
16270;SDS011;8243;49.048;8.396;2023-05-17T01:53:29;4.60;;;2.33;;
16270;SDS011;8243;49.048;8.396;2023-05-17T01:56:11;3.97;;;2.70;;
16270;SDS011;8243;49.048;8.396;2023-05-17T01:58:47;5.90;;;2.43;;
16270;SDS011;8243;49.048;8.396;2023-05-17T02:01:16;6.10;;;2.90;;
16270;SDS011;8243;49.048;8.396;2023-05-17T02:03:42;4.40;;;2.63;;
16270;SDS011;8243;49.048;8.396;2023-05-17T02:06:11;6.23;;;2.63;;
16270;SDS011;8243;49.048;8.396;2023-05-17T02:08:37;5.40;;;2.70;;
16270;SDS011;8243;49.048;8.396;2023-05-17T02:11:02;4.40;;;2.20;;
16270;SDS011;8243;49.048;8.396;2023-05-17T02:13:28;4.37;;;2.40;;
16270;SDS011;8243;49.048;8.396;2023-05-17T02:15:58;4.37;;;2.57;;
16270;SDS011;8243;49.048;8.396;2023-05-17T02:18:24;5.83;;;2.93;;
16270;SDS011;8243;49.048;8.396;2023-05-17T02:20:50;5.50;;;2.37;;
16270;SDS011;8243;49.048;8.396;2023-05-17T02:23:16;4.53;;;2.47;;
16270;SDS011;8243;49.048;8.396;2023-05-17T02:25:41;5.77;;;2.83;;
16270;SDS011;8243;49.048;8.396;2023-05-17T02:28:07;4.50;;;2.27;;
16270;SDS011;8243;49.048;8.396;2023-05-17T02:30:32;5.30;;;2.40;;
16270;SDS011;8243;49.048;8.396;2023-05-17T02:32:58;3.50;;;2.30;;
16270;SDS011;8243;49.048;8.396;2023-05-17T02:35:23;4.67;;;1.97;;
16270;SDS011;8243;49.048;8.396;2023-05-17T02:37:49;3.47;;;2.27;;
16270;SDS011;8243;49.048;8.396;2023-05-17T02:40:16;4.50;;;2.30;;
16270;SDS011;8243;49.048;8.396;2023-05-17T02:42:41;3.87;;;2.17;;
16270;SDS011;8243;49.048;8.396;2023-05-17T02:45:07;7.80;;;3.10;;
16270;SDS011;8243;49.048;8.396;2023-05-17T02:47:32;4.77;;;2.10;;
16270;SDS011;8243;49.048;8.396;2023-05-17T02:49:58;5.47;;;2.47;;
16270;SDS011;8243;49.048;8.396;2023-05-17T02:52:24;4.67;;;2.27;;
16270;SDS011;8243;49.048;8.396;2023-05-17T02:54:49;5.57;;;2.00;;
16270;SDS011;8243;49.048;8.396;2023-05-17T02:57:15;3.70;;;2.10;;
16270;SDS011;8243;49.048;8.396;2023-05-17T02:59:40;5.47;;;2.40;;
16270;SDS011;8243;49.048;8.396;2023-05-17T03:02:06;4.80;;;2.87;;
16270;SDS011;8243;49.048;8.396;2023-05-17T03:04:32;4.47;;;2.30;;
16270;SDS011;8243;49.048;8.396;2023-05-17T03:06:57;4.43;;;2.30;;
16270;SDS011;8243;49.048;8.396;2023-05-17T03:09:23;5.80;;;2.53;;
16270;SDS011;8243;49.048;8.396;2023-05-17T03:11:49;3.87;;;2.07;;
16270;SDS011;8243;49.048;8.396;2023-05-17T03:14:15;5.83;;;2.07;;
16270;SDS011;8243;49.048;8.396;2023-05-17T03:16:40;6.60;;;2.47;;
16270;SDS011;8243;49.048;8.396;2023-05-17T03:19:06;3.73;;;2.10;;
16270;SDS011;8243;49.048;8.396;2023-05-17T03:21:31;4.90;;;2.10;;
16270;SDS011;8243;49.048;8.396;2023-05-17T03:23:57;4.33;;;2.30;;
16270;SDS011;8243;49.048;8.396;2023-05-17T03:26:23;4.90;;;2.27;;
16270;SDS011;8243;49.048;8.396;2023-05-17T03:28:48;3.77;;;2.30;;
16270;SDS011;8243;49.048;8.396;2023-05-17T03:31:14;5.43;;;2.40;;
16270;SDS011;8243;49.048;8.396;2023-05-17T03:33:41;6.80;;;2.40;;
16270;SDS011;8243;49.048;8.396;2023-05-17T03:36:07;3.30;;;2.43;;
16270;SDS011;8243;49.048;8.396;2023-05-17T03:38:32;4.83;;;2.70;;
16270;SDS011;8243;49.048;8.396;2023-05-17T03:40:58;4.37;;;2.63;;
16270;SDS011;8243;49.048;8.396;2023-05-17T03:43:23;5.07;;;2.67;;
16270;SDS011;8243;49.048;8.396;2023-05-17T03:45:49;3.57;;;2.53;;
16270;SDS011;8243;49.048;8.396;2023-05-17T03:48:15;4.57;;;2.60;;
16270;SDS011;8243;49.048;8.396;2023-05-17T03:50:40;5.57;;;2.87;;
16270;SDS011;8243;49.048;8.396;2023-05-17T03:53:06;5.03;;;2.70;;
16270;SDS011;8243;49.048;8.396;2023-05-17T03:55:33;5.43;;;2.47;;
16270;SDS011;8243;49.048;8.396;2023-05-17T03:57:59;8.17;;;3.17;;
16270;SDS011;8243;49.048;8.396;2023-05-17T04:00:24;5.57;;;2.13;;
16270;SDS011;8243;49.048;8.396;2023-05-17T04:02:50;5.83;;;2.37;;
16270;SDS011;8243;49.048;8.396;2023-05-17T04:05:16;6.37;;;2.70;;
16270;SDS011;8243;49.048;8.396;2023-05-17T04:07:42;6.47;;;2.20;;
16270;SDS011;8243;49.048;8.396;2023-05-17T04:10:08;4.87;;;2.23;;
16270;SDS011;8243;49.048;8.396;2023-05-17T04:12:34;5.67;;;2.20;;
16270;SDS011;8243;49.048;8.396;2023-05-17T04:15:00;3.97;;;2.50;;
16270;SDS011;8243;49.048;8.396;2023-05-17T04:17:27;4.03;;;2.30;;
16270;SDS011;8243;49.048;8.396;2023-05-17T04:19:52;7.13;;;2.37;;
16270;SDS011;8243;49.048;8.396;2023-05-17T04:22:21;7.77;;;2.80;;
16270;SDS011;8243;49.048;8.396;2023-05-17T04:24:46;4.53;;;2.17;;
16270;SDS011;8243;49.048;8.396;2023-05-17T04:27:12;3.20;;;2.10;;
16270;SDS011;8243;49.048;8.396;2023-05-17T04:29:38;4.40;;;2.07;;
16270;SDS011;8243;49.048;8.396;2023-05-17T04:32:05;3.73;;;2.40;;
16270;SDS011;8243;49.048;8.396;2023-05-17T04:34:31;5.30;;;2.53;;
16270;SDS011;8243;49.048;8.396;2023-05-17T04:36:57;4.10;;;2.10;;
16270;SDS011;8243;49.048;8.396;2023-05-17T04:39:24;6.90;;;2.80;;
16270;SDS011;8243;49.048;8.396;2023-05-17T04:41:51;6.77;;;2.73;;
16270;SDS011;8243;49.048;8.396;2023-05-17T04:44:17;5.07;;;2.27;;
16270;SDS011;8243;49.048;8.396;2023-05-17T04:46:43;5.17;;;2.27;;
16270;SDS011;8243;49.048;8.396;2023-05-17T04:49:09;4.63;;;2.30;;
16270;SDS011;8243;49.048;8.396;2023-05-17T04:51:35;4.97;;;2.33;;
16270;SDS011;8243;49.048;8.396;2023-05-17T04:54:01;6.90;;;2.57;;
16270;SDS011;8243;49.048;8.396;2023-05-17T04:56:33;4.63;;;2.47;;
16270;SDS011;8243;49.048;8.396;2023-05-17T04:58:59;5.50;;;2.40;;
16270;SDS011;8243;49.048;8.396;2023-05-17T05:01:29;4.37;;;2.83;;
16270;SDS011;8243;49.048;8.396;2023-05-17T05:03:55;3.80;;;2.40;;
16270;SDS011;8243;49.048;8.396;2023-05-17T05:06:22;4.90;;;2.33;;
16270;SDS011;8243;49.048;8.396;2023-05-17T05:08:48;6.83;;;2.40;;
16270;SDS011;8243;49.048;8.396;2023-05-17T05:11:13;5.03;;;2.30;;
16270;SDS011;8243;49.048;8.396;2023-05-17T05:13:39;3.53;;;2.27;;
16270;SDS011;8243;49.048;8.396;2023-05-17T05:16:06;6.37;;;2.87;;
16270;SDS011;8243;49.048;8.396;2023-05-17T05:18:32;5.27;;;2.23;;
16270;SDS011;8243;49.048;8.396;2023-05-17T05:20:58;9.93;;;3.17;;
16270;SDS011;8243;49.048;8.396;2023-05-17T05:23:24;4.77;;;2.50;;
16270;SDS011;8243;49.048;8.396;2023-05-17T05:25:49;7.43;;;2.83;;
16270;SDS011;8243;49.048;8.396;2023-05-17T05:28:15;5.43;;;2.43;;
16270;SDS011;8243;49.048;8.396;2023-05-17T05:30:40;4.33;;;3.00;;
16270;SDS011;8243;49.048;8.396;2023-05-17T05:33:06;4.13;;;2.80;;
16270;SDS011;8243;49.048;8.396;2023-05-17T05:35:31;5.57;;;2.87;;
16270;SDS011;8243;49.048;8.396;2023-05-17T05:37:57;6.80;;;3.33;;
16270;SDS011;8243;49.048;8.396;2023-05-17T05:40:24;3.77;;;2.80;;
16270;SDS011;8243;49.048;8.396;2023-05-17T05:42:49;5.27;;;2.93;;
16270;SDS011;8243;49.048;8.396;2023-05-17T05:45:15;5.13;;;2.97;;
16270;SDS011;8243;49.048;8.396;2023-05-17T05:47:41;11.47;;;3.20;;
16270;SDS011;8243;49.048;8.396;2023-05-17T05:50:06;6.17;;;3.23;;
16270;SDS011;8243;49.048;8.396;2023-05-17T05:52:33;5.73;;;3.70;;
16270;SDS011;8243;49.048;8.396;2023-05-17T05:54:58;8.27;;;3.83;;
16270;SDS011;8243;49.048;8.396;2023-05-17T05:57:24;7.83;;;3.60;;
16270;SDS011;8243;49.048;8.396;2023-05-17T05:59:50;5.63;;;3.37;;
16270;SDS011;8243;49.048;8.396;2023-05-17T06:02:15;4.67;;;3.30;;
16270;SDS011;8243;49.048;8.396;2023-05-17T06:04:41;7.80;;;3.23;;
16270;SDS011;8243;49.048;8.396;2023-05-17T06:07:07;8.70;;;4.23;;
16270;SDS011;8243;49.048;8.396;2023-05-17T06:09:33;8.33;;;3.47;;
16270;SDS011;8243;49.048;8.396;2023-05-17T06:11:58;8.77;;;3.43;;
16270;SDS011;8243;49.048;8.396;2023-05-17T06:14:25;6.30;;;3.60;;
16270;SDS011;8243;49.048;8.396;2023-05-17T06:16:50;7.73;;;3.83;;
16270;SDS011;8243;49.048;8.396;2023-05-17T06:19:16;5.70;;;3.43;;
16270;SDS011;8243;49.048;8.396;2023-05-17T06:21:41;5.33;;;3.20;;
16270;SDS011;8243;49.048;8.396;2023-05-17T06:24:07;7.13;;;3.47;;
16270;SDS011;8243;49.048;8.396;2023-05-17T06:26:33;10.27;;;3.53;;
16270;SDS011;8243;49.048;8.396;2023-05-17T06:29:02;4.43;;;2.27;;
16270;SDS011;8243;49.048;8.396;2023-05-17T06:31:27;7.93;;;3.60;;
16270;SDS011;8243;49.048;8.396;2023-05-17T06:33:53;5.07;;;3.20;;
16270;SDS011;8243;49.048;8.396;2023-05-17T06:36:19;7.33;;;3.40;;
16270;SDS011;8243;49.048;8.396;2023-05-17T06:38:44;6.43;;;3.43;;
16270;SDS011;8243;49.048;8.396;2023-05-17T06:41:10;5.00;;;2.90;;
16270;SDS011;8243;49.048;8.396;2023-05-17T06:43:36;5.07;;;3.40;;
16270;SDS011;8243;49.048;8.396;2023-05-17T06:46:01;5.57;;;2.90;;
16270;SDS011;8243;49.048;8.396;2023-05-17T06:48:27;5.50;;;2.60;;
16270;SDS011;8243;49.048;8.396;2023-05-17T06:50:52;3.30;;;2.43;;
16270;SDS011;8243;49.048;8.396;2023-05-17T06:53:18;8.10;;;2.47;;
16270;SDS011;8243;49.048;8.396;2023-05-17T06:55:43;5.30;;;2.83;;
16270;SDS011;8243;49.048;8.396;2023-05-17T06:58:09;5.13;;;2.73;;
16270;SDS011;8243;49.048;8.396;2023-05-17T07:00:35;4.83;;;3.57;;
16270;SDS011;8243;49.048;8.396;2023-05-17T07:03:00;4.07;;;2.60;;
16270;SDS011;8243;49.048;8.396;2023-05-17T07:05:26;4.53;;;2.33;;
16270;SDS011;8243;49.048;8.396;2023-05-17T07:07:54;7.47;;;3.50;;
16270;SDS011;8243;49.048;8.396;2023-05-17T07:10:20;5.27;;;2.80;;
16270;SDS011;8243;49.048;8.396;2023-05-17T07:12:46;4.47;;;3.03;;
16270;SDS011;8243;49.048;8.396;2023-05-17T07:15:11;5.00;;;2.97;;
16270;SDS011;8243;49.048;8.396;2023-05-17T07:17:37;7.27;;;2.80;;
16270;SDS011;8243;49.048;8.396;2023-05-17T07:20:03;5.57;;;3.00;;
16270;SDS011;8243;49.048;8.396;2023-05-17T07:22:30;4.63;;;2.63;;
16270;SDS011;8243;49.048;8.396;2023-05-17T07:24:55;4.03;;;2.43;;
16270;SDS011;8243;49.048;8.396;2023-05-17T07:27:21;6.77;;;2.80;;
16270;SDS011;8243;49.048;8.396;2023-05-17T07:29:46;6.23;;;2.53;;
16270;SDS011;8243;49.048;8.396;2023-05-17T07:32:12;4.67;;;2.33;;
16270;SDS011;8243;49.048;8.396;2023-05-17T07:34:37;4.07;;;2.77;;
16270;SDS011;8243;49.048;8.396;2023-05-17T07:37:03;4.30;;;2.80;;
16270;SDS011;8243;49.048;8.396;2023-05-17T07:39:29;5.17;;;2.47;;
16270;SDS011;8243;49.048;8.396;2023-05-17T07:41:54;4.63;;;3.27;;
16270;SDS011;8243;49.048;8.396;2023-05-17T07:44:20;4.17;;;2.50;;
16270;SDS011;8243;49.048;8.396;2023-05-17T07:46:46;5.53;;;2.83;;
16270;SDS011;8243;49.048;8.396;2023-05-17T07:49:12;5.57;;;2.90;;
16270;SDS011;8243;49.048;8.396;2023-05-17T07:51:38;5.10;;;2.77;;
16270;SDS011;8243;49.048;8.396;2023-05-17T07:54:03;6.60;;;2.80;;
16270;SDS011;8243;49.048;8.396;2023-05-17T07:56:29;5.10;;;3.03;;
16270;SDS011;8243;49.048;8.396;2023-05-17T07:58:55;5.50;;;2.83;;
16270;SDS011;8243;49.048;8.396;2023-05-17T08:01:21;4.53;;;2.80;;
16270;SDS011;8243;49.048;8.396;2023-05-17T08:03:47;8.27;;;3.10;;
16270;SDS011;8243;49.048;8.396;2023-05-17T08:06:13;5.13;;;2.90;;
16270;SDS011;8243;49.048;8.396;2023-05-17T08:08:40;6.53;;;3.13;;
16270;SDS011;8243;49.048;8.396;2023-05-17T08:11:06;4.90;;;3.10;;
16270;SDS011;8243;49.048;8.396;2023-05-17T08:13:32;4.30;;;3.13;;
16270;SDS011;8243;49.048;8.396;2023-05-17T08:15:57;7.77;;;3.87;;
16270;SDS011;8243;49.048;8.396;2023-05-17T08:18:28;6.00;;;3.43;;
16270;SDS011;8243;49.048;8.396;2023-05-17T08:20:54;5.93;;;3.10;;
16270;SDS011;8243;49.048;8.396;2023-05-17T08:23:20;7.03;;;3.10;;
16270;SDS011;8243;49.048;8.396;2023-05-17T08:25:46;6.17;;;3.60;;
16270;SDS011;8243;49.048;8.396;2023-05-17T08:28:11;6.53;;;3.00;;
16270;SDS011;8243;49.048;8.396;2023-05-17T08:30:37;5.00;;;3.00;;
16270;SDS011;8243;49.048;8.396;2023-05-17T08:33:02;6.90;;;3.07;;
16270;SDS011;8243;49.048;8.396;2023-05-17T08:35:28;4.00;;;2.73;;
16270;SDS011;8243;49.048;8.396;2023-05-17T08:37:54;5.13;;;2.60;;
16270;SDS011;8243;49.048;8.396;2023-05-17T08:40:20;6.27;;;3.40;;
16270;SDS011;8243;49.048;8.396;2023-05-17T08:42:45;6.17;;;3.40;;
16270;SDS011;8243;49.048;8.396;2023-05-17T08:45:11;7.07;;;3.40;;
16270;SDS011;8243;49.048;8.396;2023-05-17T08:47:39;6.23;;;3.30;;
16270;SDS011;8243;49.048;8.396;2023-05-17T08:50:07;6.63;;;3.83;;
16270;SDS011;8243;49.048;8.396;2023-05-17T08:52:32;6.60;;;3.70;;
16270;SDS011;8243;49.048;8.396;2023-05-17T08:55:01;5.50;;;3.37;;
16270;SDS011;8243;49.048;8.396;2023-05-17T08:57:29;6.20;;;3.90;;
16270;SDS011;8243;49.048;8.396;2023-05-17T08:59:57;5.80;;;3.20;;
16270;SDS011;8243;49.048;8.396;2023-05-17T09:02:25;5.20;;;2.83;;
16270;SDS011;8243;49.048;8.396;2023-05-17T09:04:52;8.10;;;3.80;;
16270;SDS011;8243;49.048;8.396;2023-05-17T09:07:23;4.40;;;3.40;;
16270;SDS011;8243;49.048;8.396;2023-05-17T09:09:52;5.57;;;2.97;;
16270;SDS011;8243;49.048;8.396;2023-05-17T09:12:21;7.07;;;3.20;;
16270;SDS011;8243;49.048;8.396;2023-05-17T09:14:47;4.50;;;2.53;;
16270;SDS011;8243;49.048;8.396;2023-05-17T09:17:13;5.73;;;3.40;;
16270;SDS011;8243;49.048;8.396;2023-05-17T09:19:43;4.87;;;3.30;;
16270;SDS011;8243;49.048;8.396;2023-05-17T09:22:13;5.37;;;3.27;;
16270;SDS011;8243;49.048;8.396;2023-05-17T09:24:42;5.83;;;3.00;;
16270;SDS011;8243;49.048;8.396;2023-05-17T09:27:13;3.23;;;2.10;;
16270;SDS011;8243;49.048;8.396;2023-05-17T09:29:39;4.47;;;3.10;;
16270;SDS011;8243;49.048;8.396;2023-05-17T09:34:38;6.27;;;3.20;;
16270;SDS011;8243;49.048;8.396;2023-05-17T09:37:17;6.20;;;3.57;;
16270;SDS011;8243;49.048;8.396;2023-05-17T09:39:44;5.97;;;2.83;;
16270;SDS011;8243;49.048;8.396;2023-05-17T09:42:11;10.93;;;3.70;;
16270;SDS011;8243;49.048;8.396;2023-05-17T09:44:48;15.17;;;2.70;;
16270;SDS011;8243;49.048;8.396;2023-05-17T09:47:20;6.03;;;2.93;;
16270;SDS011;8243;49.048;8.396;2023-05-17T09:49:47;3.97;;;2.77;;
16270;SDS011;8243;49.048;8.396;2023-05-17T09:52:15;3.93;;;2.60;;
16270;SDS011;8243;49.048;8.396;2023-05-17T09:54:42;4.30;;;2.13;;
16270;SDS011;8243;49.048;8.396;2023-05-17T09:57:07;6.70;;;3.03;;
16270;SDS011;8243;49.048;8.396;2023-05-17T09:59:34;7.67;;;2.87;;
16270;SDS011;8243;49.048;8.396;2023-05-17T10:02:01;3.90;;;2.50;;
16270;SDS011;8243;49.048;8.396;2023-05-17T10:04:30;5.80;;;2.97;;
16270;SDS011;8243;49.048;8.396;2023-05-17T10:06:58;5.73;;;2.77;;
16270;SDS011;8243;49.048;8.396;2023-05-17T10:09:25;3.67;;;2.63;;
16270;SDS011;8243;49.048;8.396;2023-05-17T10:11:51;3.53;;;2.53;;
16270;SDS011;8243;49.048;8.396;2023-05-17T10:14:25;3.70;;;2.40;;
16270;SDS011;8243;49.048;8.396;2023-05-17T10:16:55;4.17;;;2.43;;
16270;SDS011;8243;49.048;8.396;2023-05-17T10:19:22;6.20;;;3.13;;
16270;SDS011;8243;49.048;8.396;2023-05-17T10:21:49;4.93;;;3.00;;
16270;SDS011;8243;49.048;8.396;2023-05-17T10:24:17;4.63;;;2.83;;
16270;SDS011;8243;49.048;8.396;2023-05-17T10:26:45;4.53;;;2.90;;
16270;SDS011;8243;49.048;8.396;2023-05-17T10:29:13;5.70;;;3.13;;
16270;SDS011;8243;49.048;8.396;2023-05-17T10:31:40;6.10;;;3.60;;
16270;SDS011;8243;49.048;8.396;2023-05-17T10:34:11;7.63;;;3.30;;
16270;SDS011;8243;49.048;8.396;2023-05-17T10:36:42;4.77;;;3.10;;
16270;SDS011;8243;49.048;8.396;2023-05-17T10:39:08;5.50;;;2.33;;
16270;SDS011;8243;49.048;8.396;2023-05-17T10:41:34;5.47;;;2.70;;
16270;SDS011;8243;49.048;8.396;2023-05-17T10:44:03;5.33;;;2.87;;
16270;SDS011;8243;49.048;8.396;2023-05-17T10:46:33;6.73;;;2.70;;
16270;SDS011;8243;49.048;8.396;2023-05-17T10:49:00;8.70;;;3.27;;
16270;SDS011;8243;49.048;8.396;2023-05-17T10:51:29;2.97;;;2.60;;
16270;SDS011;8243;49.048;8.396;2023-05-17T10:56:30;4.63;;;2.23;;
16270;SDS011;8243;49.048;8.396;2023-05-17T11:09:41;4.07;;;2.67;;
16270;SDS011;8243;49.048;8.396;2023-05-17T11:12:08;4.80;;;2.30;;
16270;SDS011;8243;49.048;8.396;2023-05-17T11:17:13;3.60;;;2.30;;
16270;SDS011;8243;49.048;8.396;2023-05-17T11:19:47;3.83;;;2.60;;
16270;SDS011;8243;49.048;8.396;2023-05-17T11:22:23;3.23;;;2.27;;
16270;SDS011;8243;49.048;8.396;2023-05-17T11:24:57;3.93;;;2.50;;
16270;SDS011;8243;49.048;8.396;2023-05-17T11:27:25;5.97;;;2.70;;
16270;SDS011;8243;49.048;8.396;2023-05-17T11:30:02;4.30;;;2.77;;
16270;SDS011;8243;49.048;8.396;2023-05-17T11:32:33;3.03;;;2.20;;
16270;SDS011;8243;49.048;8.396;2023-05-17T11:34:58;3.83;;;2.50;;
16270;SDS011;8243;49.048;8.396;2023-05-17T11:37:25;4.50;;;2.50;;
16270;SDS011;8243;49.048;8.396;2023-05-17T11:42:28;3.17;;;2.67;;
16270;SDS011;8243;49.048;8.396;2023-05-17T11:44:55;2.90;;;2.37;;
16270;SDS011;8243;49.048;8.396;2023-05-17T11:47:25;3.00;;;2.50;;
16270;SDS011;8243;49.048;8.396;2023-05-17T11:49:51;2.83;;;2.43;;
16270;SDS011;8243;49.048;8.396;2023-05-17T11:52:20;4.30;;;2.90;;
16270;SDS011;8243;49.048;8.396;2023-05-17T11:54:47;2.70;;;2.30;;
16270;SDS011;8243;49.048;8.396;2023-05-17T11:57:13;5.00;;;2.47;;
16270;SDS011;8243;49.048;8.396;2023-05-17T11:59:41;3.90;;;2.70;;
16270;SDS011;8243;49.048;8.396;2023-05-17T12:02:07;6.63;;;2.60;;
16270;SDS011;8243;49.048;8.396;2023-05-17T12:04:37;4.60;;;2.07;;
16270;SDS011;8243;49.048;8.396;2023-05-17T12:07:03;6.63;;;3.20;;
16270;SDS011;8243;49.048;8.396;2023-05-17T12:09:29;6.27;;;2.50;;
16270;SDS011;8243;49.048;8.396;2023-05-17T12:11:55;5.23;;;2.30;;
16270;SDS011;8243;49.048;8.396;2023-05-17T12:14:22;6.33;;;2.67;;
16270;SDS011;8243;49.048;8.396;2023-05-17T12:16:54;6.37;;;2.80;;
16270;SDS011;8243;49.048;8.396;2023-05-17T12:19:23;5.73;;;3.07;;
16270;SDS011;8243;49.048;8.396;2023-05-17T12:21:50;6.83;;;2.70;;
16270;SDS011;8243;49.048;8.396;2023-05-17T12:24:16;6.47;;;2.70;;
16270;SDS011;8243;49.048;8.396;2023-05-17T12:26:42;4.63;;;2.40;;
16270;SDS011;8243;49.048;8.396;2023-05-17T12:29:09;3.60;;;2.20;;
16270;SDS011;8243;49.048;8.396;2023-05-17T12:31:36;2.60;;;2.00;;
16270;SDS011;8243;49.048;8.396;2023-05-17T12:34:13;3.63;;;2.43;;
16270;SDS011;8243;49.048;8.396;2023-05-17T12:36:41;4.10;;;2.43;;
16270;SDS011;8243;49.048;8.396;2023-05-17T12:39:08;5.77;;;2.60;;
16270;SDS011;8243;49.048;8.396;2023-05-17T12:41:37;6.67;;;2.90;;
16270;SDS011;8243;49.048;8.396;2023-05-17T12:44:06;5.03;;;2.60;;
16270;SDS011;8243;49.048;8.396;2023-05-17T12:46:33;3.77;;;2.73;;
16270;SDS011;8243;49.048;8.396;2023-05-17T12:49:00;5.17;;;3.07;;
16270;SDS011;8243;49.048;8.396;2023-05-17T12:51:42;4.33;;;2.50;;
16270;SDS011;8243;49.048;8.396;2023-05-17T12:54:09;6.20;;;2.97;;
16270;SDS011;8243;49.048;8.396;2023-05-17T12:56:36;3.37;;;2.73;;
16270;SDS011;8243;49.048;8.396;2023-05-17T12:59:14;3.67;;;2.73;;
16270;SDS011;8243;49.048;8.396;2023-05-17T13:01:57;3.30;;;2.37;;
16270;SDS011;8243;49.048;8.396;2023-05-17T13:04:28;3.33;;;2.50;;
16270;SDS011;8243;49.048;8.396;2023-05-17T13:07:05;5.50;;;2.53;;
16270;SDS011;8243;49.048;8.396;2023-05-17T13:09:32;5.83;;;2.73;;
16270;SDS011;8243;49.048;8.396;2023-05-17T13:11:59;5.77;;;3.80;;
16270;SDS011;8243;49.048;8.396;2023-05-17T13:14:36;4.43;;;2.73;;
16270;SDS011;8243;49.048;8.396;2023-05-17T13:17:08;3.10;;;2.37;;
16270;SDS011;8243;49.048;8.396;2023-05-17T13:19:36;3.17;;;2.67;;
16270;SDS011;8243;49.048;8.396;2023-05-17T13:22:05;4.13;;;2.73;;
16270;SDS011;8243;49.048;8.396;2023-05-17T13:24:35;4.40;;;2.40;;
16270;SDS011;8243;49.048;8.396;2023-05-17T13:27:02;3.77;;;2.60;;
16270;SDS011;8243;49.048;8.396;2023-05-17T13:29:28;4.47;;;2.80;;
16270;SDS011;8243;49.048;8.396;2023-05-17T13:31:54;4.03;;;2.60;;
16270;SDS011;8243;49.048;8.396;2023-05-17T13:34:20;2.87;;;2.33;;
16270;SDS011;8243;49.048;8.396;2023-05-17T13:36:46;4.90;;;2.80;;
16270;SDS011;8243;49.048;8.396;2023-05-17T13:39:12;6.77;;;2.83;;
16270;SDS011;8243;49.048;8.396;2023-05-17T13:41:38;4.83;;;3.07;;
16270;SDS011;8243;49.048;8.396;2023-05-17T13:44:04;4.77;;;3.17;;
16270;SDS011;8243;49.048;8.396;2023-05-17T13:46:30;2.93;;;2.50;;
16270;SDS011;8243;49.048;8.396;2023-05-17T13:48:56;5.67;;;2.90;;
16270;SDS011;8243;49.048;8.396;2023-05-17T13:51:22;3.17;;;2.70;;
16270;SDS011;8243;49.048;8.396;2023-05-17T13:53:49;3.67;;;2.57;;
16270;SDS011;8243;49.048;8.396;2023-05-17T13:56:15;4.17;;;2.70;;
16270;SDS011;8243;49.048;8.396;2023-05-17T13:58:41;4.20;;;2.70;;
16270;SDS011;8243;49.048;8.396;2023-05-17T14:01:06;4.57;;;3.00;;
16270;SDS011;8243;49.048;8.396;2023-05-17T14:03:32;6.53;;;3.10;;
16270;SDS011;8243;49.048;8.396;2023-05-17T14:05:58;5.83;;;3.03;;
16270;SDS011;8243;49.048;8.396;2023-05-17T14:08:24;5.33;;;2.87;;
16270;SDS011;8243;49.048;8.396;2023-05-17T14:10:50;4.70;;;3.00;;
16270;SDS011;8243;49.048;8.396;2023-05-17T14:13:16;6.77;;;3.20;;
16270;SDS011;8243;49.048;8.396;2023-05-17T14:15:41;6.00;;;2.77;;
16270;SDS011;8243;49.048;8.396;2023-05-17T14:18:07;6.00;;;2.80;;
16270;SDS011;8243;49.048;8.396;2023-05-17T14:20:33;8.90;;;3.00;;
16270;SDS011;8243;49.048;8.396;2023-05-17T14:22:59;4.37;;;2.70;;
16270;SDS011;8243;49.048;8.396;2023-05-17T14:25:25;3.37;;;2.30;;
16270;SDS011;8243;49.048;8.396;2023-05-17T14:27:51;5.30;;;3.20;;
16270;SDS011;8243;49.048;8.396;2023-05-17T14:30:17;8.10;;;3.50;;
16270;SDS011;8243;49.048;8.396;2023-05-17T14:32:43;5.53;;;2.83;;
16270;SDS011;8243;49.048;8.396;2023-05-17T14:35:08;5.50;;;2.80;;
16270;SDS011;8243;49.048;8.396;2023-05-17T14:37:34;4.70;;;2.77;;
16270;SDS011;8243;49.048;8.396;2023-05-17T14:40:00;5.10;;;2.90;;
16270;SDS011;8243;49.048;8.396;2023-05-17T14:42:26;5.77;;;2.97;;
16270;SDS011;8243;49.048;8.396;2023-05-17T14:44:51;6.70;;;2.73;;
16270;SDS011;8243;49.048;8.396;2023-05-17T14:47:17;5.87;;;3.00;;
16270;SDS011;8243;49.048;8.396;2023-05-17T14:49:45;4.57;;;2.83;;
16270;SDS011;8243;49.048;8.396;2023-05-17T14:52:11;4.23;;;2.57;;
16270;SDS011;8243;49.048;8.396;2023-05-17T14:54:37;5.43;;;3.00;;
16270;SDS011;8243;49.048;8.396;2023-05-17T14:57:03;3.40;;;2.50;;
16270;SDS011;8243;49.048;8.396;2023-05-17T14:59:29;4.77;;;2.70;;
16270;SDS011;8243;49.048;8.396;2023-05-17T15:01:55;4.30;;;2.80;;
16270;SDS011;8243;49.048;8.396;2023-05-17T15:04:21;4.40;;;2.77;;
16270;SDS011;8243;49.048;8.396;2023-05-17T15:06:46;3.23;;;2.50;;
16270;SDS011;8243;49.048;8.396;2023-05-17T15:09:12;3.57;;;2.53;;
16270;SDS011;8243;49.048;8.396;2023-05-17T15:11:38;4.27;;;2.67;;
16270;SDS011;8243;49.048;8.396;2023-05-17T15:14:04;4.33;;;2.37;;
16270;SDS011;8243;49.048;8.396;2023-05-17T15:16:31;4.07;;;2.50;;
16270;SDS011;8243;49.048;8.396;2023-05-17T15:18:57;4.53;;;3.10;;
16270;SDS011;8243;49.048;8.396;2023-05-17T15:21:23;4.30;;;2.70;;
16270;SDS011;8243;49.048;8.396;2023-05-17T15:23:49;5.07;;;2.90;;
16270;SDS011;8243;49.048;8.396;2023-05-17T15:26:15;5.33;;;2.80;;
16270;SDS011;8243;49.048;8.396;2023-05-17T15:28:41;4.87;;;2.70;;